^^
Grace C. Lehan Memorial Weather Station Historical Data
Daily Summary for March 7, 2021 Units:  English    Metric   Both
Daily Weekly Monthly Yearly
  High: Low: Average:
Temperature: 67.3 °F 61 °F 62.9 °F
Dew Point: 42.3 °F 38.9 °F 40.3 °F
Humidity: 48% 37% 44%
Wind Speed: 3.2mph 0mph 0.4mph
Wind Gust: 6mph - -
Wind- - SE
Pressure: 29.91 in 29.84 in -
Precipitation: 0.00 in    
 
 
Tabular Data for March 7, 2021
Time Temperature Dew Point Pressure Wind Wind Speed Wind Gust Humidity Rainfall Rate (Hourly) solar
11:00 67.3 °F 40.8 °F 29.91 in ENE 1 mph 6 mph 38% 0.00 in 866 W/m2
11:30 66.7 °F 39.6 °F 29.89 in Calm   6 mph 37% 0.00 in 896 W/m2
12:04 65.5 °F 39.2 °F 29.89 in NNE 3.2 mph 6 mph 37.9% 0.00 in 896 W/m2
12:09 65.3 °F 39.1 °F 29.88 in NE 1.5 mph 6 mph 38.1% 0.00 in 315 W/m2
12:14 65 °F 39.4 °F 29.88 in East 0.5 mph 6 mph 38.8% 0.00 in 301 W/m2
12:19 64.8 °F 39.6 °F 29.88 in Calm   6 mph 39.5% 0.00 in 278 W/m2
12:24 64.7 °F 39.2 °F 29.88 in SE 0.2 mph 6 mph 39% 0.00 in 225 W/m2
12:29 64.4 °F 38.9 °F 29.88 in SSE 0.2 mph 6 mph 38.9% 0.00 in 202 W/m2
12:34 64.2 °F 39.8 °F 29.88 in South 0.1 mph 6 mph 40.7% 0.00 in 190 W/m2
12:39 64 °F 39.4 °F 29.88 in Calm   3 mph 40.3% 0.00 in 204 W/m2
12:44 63.8 °F 39.3 °F 29.88 in South 0.1 mph 3 mph 40.5% 0.00 in 294 W/m2
12:49 63.6 °F 39.8 °F 29.88 in South 0.1 mph 3 mph 41.5% 0.00 in 348 W/m2
12:54 63.8 °F 40.7 °F 29.87 in NE 0.7 mph 3 mph 42.6% 0.00 in 378 W/m2
12:59 64.1 °F 40 °F 29.87 in ENE 0.1 mph 3 mph 41% 0.00 in 459 W/m2
13:04 64.3 °F 39.7 °F 29.87 in ENE 0.1 mph 3 mph 40.4% 0.00 in 496 W/m2
13:09 64.4 °F 40.5 °F 29.87 in East 0.9 mph 4 mph 41.5% 0.00 in 352 W/m2
13:14 64.4 °F 40.2 °F 29.87 in East 0.5 mph 4 mph 40.9% 0.00 in 234 W/m2
13:19 64.2 °F 40.2 °F 29.87 in Calm   4 mph 41.3% 0.00 in 149 W/m2
13:24 63.8 °F 40 °F 29.87 in ESE 1.2 mph 4 mph 41.5% 0.00 in 120 W/m2
13:29 63.1 °F 40.4 °F 29.87 in ESE 1.2 mph 5 mph 43.2% 0.00 in 88 W/m2
13:34 62.4 °F 40.9 °F 29.87 in SE 0.5 mph 5 mph 45.1% 0.00 in 67 W/m2
13:39 61.9 °F 40.8 °F 29.87 in SE 0.6 mph 4 mph 45.7% 0.00 in 69 W/m2
13:44 61.6 °F 40.4 °F 29.87 in SSE 0.5 mph 5 mph 45.7% 0.00 in 72 W/m2
13:49 61.3 °F 40.7 °F 29.87 in South 0.6 mph 5 mph 46.5% 0.00 in 76 W/m2
13:54 61.1 °F 40.7 °F 29.87 in South 0.4 mph 5 mph 46.8% 0.00 in 88 W/m2
13:59 61 °F 40.7 °F 29.87 in Calm   5 mph 47% 0.00 in 97 W/m2
14:04 61 °F 40.9 °F 29.86 in South 0.3 mph 5 mph 47.4% 0.00 in 107 W/m2
14:09 61 °F 40.5 °F 29.86 in South 0.2 mph 3 mph 46.6% 0.00 in 109 W/m2
14:14 61.1 °F 40.4 °F 29.86 in Calm   3 mph 46.4% 0.00 in 105 W/m2
14:19 61.1 °F 40.3 °F 29.86 in SSE 0.2 mph 3 mph 46.1% 0.00 in 104 W/m2
14:24 61.1 °F 39.8 °F 29.86 in Calm   3 mph 45.4% 0.00 in 107 W/m2
14:29 61.1 °F 40.4 °F 29.86 in Calm   3 mph 46.3% 0.00 in 113 W/m2
14:34 61.1 °F 40.6 °F 29.86 in SSE 0.1 mph 3 mph 46.8% 0.00 in 113 W/m2
14:39 61.2 °F 40.4 °F 29.85 in SSE 0.1 mph 2 mph 46.2% 0.00 in 120 W/m2
14:44 61.3 °F 40.6 °F 29.85 in SSE 0.2 mph 3 mph 46.5% 0.00 in 142 W/m2
14:49 61.3 °F 40.4 °F 29.85 in Calm   3 mph 46% 0.00 in 171 W/m2
14:54 61.4 °F 40.2 °F 29.85 in Calm   3 mph 45.6% 0.00 in 185 W/m2
14:59 61.5 °F 40.6 °F 29.85 in Calm   3 mph 46% 0.00 in 190 W/m2
15:04 61.7 °F 40.5 °F 29.85 in Calm   3 mph 45.5% 0.00 in 195 W/m2
15:09 61.9 °F 41.1 °F 29.84 in Calm   2 mph 46.3% 0.00 in 199 W/m2
15:14 62.1 °F 41.4 °F 29.84 in Calm   2 mph 46.4% 0.00 in 183 W/m2
15:19 62.2 °F 42.3 °F 29.84 in SSW 0.3 mph 3 mph 48% 0.00 in 155 W/m2
15:23 62.2 °F 42.2 °F 29.84 in South 1.1 mph 4 mph 48% 0.00 in 178 W/m2
Hartford County Weather
Compliments of Weather Underground - 2 mb